createdAt,value
2016-11-05T00:00:42.354Z,959.31
2016-11-05T00:01:42.316Z,959.3
2016-11-05T00:02:42.276Z,959.24
2016-11-05T00:03:42.239Z,959.27
2016-11-05T00:04:42.200Z,959.26
2016-11-05T00:05:42.161Z,959.3
2016-11-05T00:06:42.122Z,959.24
2016-11-05T00:07:42.084Z,959.25
2016-11-05T00:08:42.045Z,959.3
2016-11-05T00:09:42.009Z,959.27
2016-11-05T00:10:41.969Z,959.24
2016-11-05T00:11:41.931Z,959.26
2016-11-05T00:12:41.893Z,959.24
2016-11-05T00:13:41.855Z,959.22
2016-11-05T00:14:41.815Z,959.2
2016-11-05T00:15:41.778Z,959.17
2016-11-05T00:16:41.740Z,959.18
2016-11-05T00:17:41.705Z,959.18
2016-11-05T00:18:41.667Z,959.11
2016-11-05T00:19:41.632Z,959.09
2016-11-05T00:20:41.584Z,959.14
2016-11-05T00:21:41.547Z,959.09
2016-11-05T00:22:41.516Z,959.09
2016-11-05T00:23:41.469Z,959.1
2016-11-05T00:24:41.431Z,959.09
2016-11-05T00:25:41.392Z,959.07
2016-11-05T00:26:41.356Z,959.05
2016-11-05T00:27:41.316Z,959.07
2016-11-05T00:28:41.277Z,959.02
2016-11-05T00:29:41.239Z,959.02
2016-11-05T00:30:41.202Z,959
2016-11-05T00:31:41.163Z,958.98
2016-11-05T00:32:41.125Z,958.98
2016-11-05T00:33:41.086Z,958.95
2016-11-05T00:34:41.047Z,958.91
2016-11-05T00:35:41.012Z,958.88
2016-11-05T00:36:40.968Z,958.87
2016-11-05T00:37:40.931Z,958.86
2016-11-05T00:38:40.894Z,958.86
2016-11-05T00:39:40.855Z,958.92
2016-11-05T00:40:40.817Z,958.91
2016-11-05T00:41:40.779Z,958.88
2016-11-05T00:42:40.740Z,958.85
2016-11-05T00:43:40.701Z,958.79
2016-11-05T00:44:40.662Z,958.74
2016-11-05T00:45:40.631Z,958.66
2016-11-05T00:46:40.586Z,958.7
2016-11-05T00:47:40.551Z,958.64
2016-11-05T00:48:40.510Z,958.62
2016-11-05T00:49:40.473Z,958.62
2016-11-05T00:50:40.441Z,958.68
2016-11-05T00:51:40.395Z,958.69
2016-11-05T00:52:40.356Z,958.74
2016-11-05T00:53:40.318Z,958.76
2016-11-05T00:54:40.279Z,958.78
2016-11-05T00:55:40.241Z,958.84
2016-11-05T00:56:40.203Z,958.81
2016-11-05T00:57:40.164Z,958.85
2016-11-05T00:58:40.128Z,958.89
2016-11-05T00:59:40.088Z,958.88
2016-11-05T01:00:40.051Z,958.92
2016-11-05T01:01:40.014Z,958.92
2016-11-05T01:02:39.974Z,958.9
2016-11-05T01:03:39.938Z,958.97
2016-11-05T01:04:39.899Z,958.95
2016-11-05T01:05:39.860Z,958.87
2016-11-05T01:06:39.822Z,958.88
2016-11-05T01:07:39.785Z,958.82
2016-11-05T01:08:39.745Z,958.81
2016-11-05T01:09:39.705Z,958.94
2016-11-05T01:10:39.669Z,959
2016-11-05T01:11:39.631Z,959.06
2016-11-05T01:12:39.592Z,959.03
2016-11-05T01:13:39.553Z,959.01
2016-11-05T01:14:39.516Z,958.93
2016-11-05T01:15:39.476Z,958.93
2016-11-05T01:16:39.441Z,958.87
2016-11-05T01:17:39.401Z,958.82
2016-11-05T01:18:39.362Z,958.85
2016-11-05T01:19:39.324Z,958.81
2016-11-05T01:20:39.287Z,958.86
2016-11-05T01:21:39.248Z,958.81
2016-11-05T01:22:39.209Z,958.8
2016-11-05T01:23:39.170Z,958.74
2016-11-05T01:24:39.134Z,958.69
2016-11-05T01:25:39.100Z,958.63
2016-11-05T01:26:39.061Z,958.66
2016-11-05T01:27:39.019Z,958.64
2016-11-05T01:28:38.980Z,958.64
2016-11-05T01:29:38.942Z,958.66
2016-11-05T01:30:38.903Z,958.74
2016-11-05T01:31:38.864Z,958.73
2016-11-05T01:32:38.829Z,958.76
2016-11-05T01:33:38.787Z,958.69
2016-11-05T01:34:38.750Z,958.63
2016-11-05T01:35:38.711Z,958.6
2016-11-05T01:36:38.673Z,958.59
2016-11-05T01:37:38.635Z,958.56
2016-11-05T01:38:38.597Z,958.49
2016-11-05T01:39:38.560Z,958.4
2016-11-05T01:40:38.520Z,958.37
2016-11-05T01:41:38.482Z,958.32
2016-11-05T01:42:38.444Z,958.24
2016-11-05T01:43:38.408Z,958.28
2016-11-05T01:44:38.366Z,958.27
2016-11-05T01:45:38.332Z,958.21
2016-11-05T01:46:38.291Z,958.17
2016-11-05T01:47:38.251Z,958.13
2016-11-05T01:48:38.214Z,958.13
2016-11-05T01:49:38.175Z,958.12
2016-11-05T01:50:38.138Z,958.11
2016-11-05T01:51:38.100Z,958.08
2016-11-05T01:52:38.061Z,958.1
2016-11-05T01:53:38.024Z,958.05
2016-11-05T01:54:37.987Z,958.02
2016-11-05T01:55:37.946Z,957.99
2016-11-05T01:56:37.909Z,958.03
2016-11-05T01:57:37.871Z,958
2016-11-05T01:58:37.834Z,957.99
2016-11-05T01:59:37.796Z,957.94
2016-11-05T02:00:37.758Z,957.91
2016-11-05T02:01:37.719Z,957.96
2016-11-05T02:02:37.682Z,957.96
2016-11-05T02:03:37.646Z,957.98
2016-11-05T02:04:37.606Z,957.98
2016-11-05T02:05:37.568Z,957.98
2016-11-05T02:06:37.529Z,957.97
2016-11-05T02:07:37.492Z,957.96
2016-11-05T02:08:37.455Z,957.92
2016-11-05T02:09:37.417Z,957.92
2016-11-05T02:10:37.379Z,957.96
2016-11-05T02:11:37.342Z,957.92
2016-11-05T02:12:37.304Z,957.93
2016-11-05T02:13:37.267Z,957.88
2016-11-05T02:14:37.228Z,957.89
2016-11-05T02:15:37.190Z,957.89
2016-11-05T02:16:37.153Z,957.88
2016-11-05T02:17:37.115Z,957.87
2016-11-05T02:18:37.078Z,957.85
2016-11-05T02:19:37.039Z,957.88
2016-11-05T02:20:37.004Z,957.9
2016-11-05T02:21:36.962Z,957.86
2016-11-05T02:22:36.927Z,957.85
2016-11-05T02:23:36.891Z,957.87
2016-11-05T02:24:36.852Z,957.84
2016-11-05T02:25:36.813Z,957.75
2016-11-05T02:26:36.778Z,957.71
2016-11-05T02:27:36.739Z,957.68
2016-11-05T02:28:36.701Z,957.68
2016-11-05T02:29:36.665Z,957.74
2016-11-05T02:30:36.626Z,957.7
2016-11-05T02:31:36.589Z,957.68
2016-11-05T02:32:36.550Z,957.63
2016-11-05T02:33:36.515Z,957.62
2016-11-05T02:34:36.476Z,957.6
2016-11-05T02:35:36.439Z,957.6
2016-11-05T02:36:36.400Z,957.56
2016-11-05T02:37:36.364Z,957.53
2016-11-05T02:38:36.330Z,957.53
2016-11-05T02:39:36.289Z,957.49
2016-11-05T02:40:36.252Z,957.46
2016-11-05T02:41:36.214Z,957.48
2016-11-05T02:42:36.191Z,957.45
2016-11-05T02:43:36.139Z,957.44
2016-11-05T02:44:36.101Z,957.43
2016-11-05T02:45:36.064Z,957.43
2016-11-05T02:46:36.028Z,957.44
2016-11-05T02:47:35.993Z,957.45
2016-11-05T02:48:35.953Z,957.4
2016-11-05T02:49:35.917Z,957.32
2016-11-05T02:50:35.879Z,957.29
2016-11-05T02:51:35.841Z,957.3
2016-11-05T02:52:35.804Z,957.28
2016-11-05T02:53:35.767Z,957.29
2016-11-05T02:54:35.729Z,957.27
2016-11-05T02:55:35.692Z,957.28
2016-11-05T02:56:35.655Z,957.27
2016-11-05T02:57:35.617Z,957.26
2016-11-05T02:58:35.581Z,957.27
2016-11-05T02:59:35.546Z,957.26
2016-11-05T03:00:35.507Z,957.31
2016-11-05T03:01:35.469Z,957.31
2016-11-05T03:02:35.433Z,957.36
2016-11-05T03:03:35.395Z,957.34
2016-11-05T03:04:35.359Z,957.37
2016-11-05T03:05:35.321Z,957.39
2016-11-05T03:06:35.284Z,957.38
2016-11-05T03:07:35.248Z,957.37
2016-11-05T03:08:35.210Z,957.4
2016-11-05T03:09:35.172Z,957.38
2016-11-05T03:10:35.135Z,957.35
2016-11-05T03:11:35.098Z,957.36
2016-11-05T03:12:35.061Z,957.31
2016-11-05T03:13:35.023Z,957.3
2016-11-05T03:14:34.986Z,957.29
2016-11-05T03:15:34.949Z,957.25
2016-11-05T03:16:34.910Z,957.25
2016-11-05T03:17:34.874Z,957.21
2016-11-05T03:18:34.839Z,957.21
2016-11-05T03:19:34.799Z,957.2
2016-11-05T03:20:34.762Z,957.19
2016-11-05T03:21:34.724Z,957.24
2016-11-05T03:22:34.687Z,957.18
2016-11-05T03:23:34.652Z,957.17
2016-11-05T03:24:34.613Z,957.19
2016-11-05T03:25:34.576Z,957.19
2016-11-05T03:26:34.538Z,957.22
2016-11-05T03:27:34.500Z,957.21
2016-11-05T03:28:34.464Z,957.16
2016-11-05T03:29:34.426Z,957.17
2016-11-05T03:30:34.387Z,957.19
2016-11-05T03:31:34.351Z,957.21
2016-11-05T03:32:34.315Z,957.18
2016-11-05T03:33:34.277Z,957.22
2016-11-05T03:34:34.239Z,957.21
2016-11-05T03:35:34.202Z,957.2
2016-11-05T03:36:34.164Z,957.18
2016-11-05T03:37:34.128Z,957.15
2016-11-05T03:38:34.089Z,957.14
2016-11-05T03:39:34.052Z,957.17
2016-11-05T03:40:34.015Z,957.17
2016-11-05T03:41:33.977Z,957.15
2016-11-05T03:42:33.945Z,957.19
2016-11-05T03:43:33.903Z,957.17
2016-11-05T03:44:33.865Z,957.1
2016-11-05T03:45:33.828Z,957.11
2016-11-05T03:46:33.790Z,957.12
2016-11-05T03:47:33.753Z,957.1
2016-11-05T03:48:33.717Z,957.04
2016-11-05T03:49:33.678Z,957.08
2016-11-05T03:50:33.641Z,957.01
2016-11-05T03:51:33.604Z,957.02
2016-11-05T03:52:33.568Z,957.01
2016-11-05T03:53:33.533Z,957.04
2016-11-05T03:54:33.492Z,957.03
2016-11-05T03:55:33.456Z,957.03
2016-11-05T03:56:33.417Z,957.08
2016-11-05T03:57:33.380Z,957.05
2016-11-05T03:58:33.344Z,957.03
2016-11-05T03:59:33.306Z,957.02
2016-11-05T04:00:33.269Z,957.06
2016-11-05T04:01:33.232Z,956.96
2016-11-05T04:02:33.194Z,956.97
2016-11-05T04:03:33.156Z,957.01
2016-11-05T04:04:33.118Z,956.99
2016-11-05T04:05:33.082Z,957.01
2016-11-05T04:06:33.045Z,957.07
2016-11-05T04:07:33.006Z,957.07
2016-11-05T04:08:32.970Z,957.08
2016-11-05T04:09:32.933Z,957.11
2016-11-05T04:10:32.897Z,957.09
2016-11-05T04:11:32.858Z,957.11
2016-11-05T04:12:32.821Z,957.12
2016-11-05T04:13:32.784Z,957.09
2016-11-05T04:14:32.747Z,957.05
2016-11-05T04:15:32.709Z,957.08
2016-11-05T04:16:32.672Z,957.01
2016-11-05T04:17:32.637Z,956.96
2016-11-05T04:18:32.597Z,956.99
2016-11-05T04:19:32.564Z,956.99
2016-11-05T04:20:32.537Z,956.94
2016-11-05T04:21:32.488Z,956.91
2016-11-05T04:22:32.450Z,956.85
2016-11-05T04:23:32.413Z,956.92
2016-11-05T04:24:32.376Z,956.88
2016-11-05T04:25:32.337Z,956.82
2016-11-05T04:26:32.301Z,956.73
2016-11-05T04:27:32.270Z,956.76
2016-11-05T04:28:32.227Z,956.71
2016-11-05T04:29:32.188Z,956.68
2016-11-05T04:30:32.153Z,956.6
2016-11-05T04:31:32.116Z,956.52
2016-11-05T04:32:32.078Z,956.49
2016-11-05T04:33:32.042Z,956.37
2016-11-05T04:34:32.006Z,956.34
2016-11-05T04:35:31.968Z,956.36
2016-11-05T04:36:31.934Z,956.3
2016-11-05T04:37:31.896Z,956.27
2016-11-05T04:38:31.856Z,956.26
2016-11-05T04:39:31.854Z,956.17
2016-11-05T04:40:31.782Z,956.14
2016-11-05T04:41:31.745Z,956.12
2016-11-05T04:42:31.708Z,956.14
2016-11-05T04:43:31.669Z,956.12
2016-11-05T04:44:31.635Z,956.11
2016-11-05T04:45:31.597Z,956.16
2016-11-05T04:46:31.560Z,956.1
2016-11-05T04:47:31.523Z,956.15
2016-11-05T04:48:31.484Z,956.19
2016-11-05T04:49:31.448Z,956.19
2016-11-05T04:50:31.412Z,956.12
2016-11-05T04:51:31.374Z,956.09
2016-11-05T04:52:31.336Z,956.06
2016-11-05T04:53:31.320Z,955.99
2016-11-05T04:54:31.261Z,956.02
2016-11-05T04:55:31.224Z,955.98
2016-11-05T04:56:31.188Z,955.96
2016-11-05T04:57:31.154Z,955.92
2016-11-05T04:58:31.113Z,955.91
2016-11-05T04:59:31.077Z,955.9
2016-11-05T05:00:31.040Z,955.83
2016-11-05T05:01:31.003Z,955.83
2016-11-05T05:02:30.966Z,955.75
2016-11-05T05:03:30.941Z,955.79
2016-11-05T05:04:30.892Z,955.84
2016-11-05T05:05:30.852Z,955.85
2016-11-05T05:06:30.819Z,955.9
2016-11-05T05:07:30.779Z,955.97
2016-11-05T05:08:30.742Z,956.01
2016-11-05T05:09:30.705Z,955.98
2016-11-05T05:10:30.669Z,955.94
2016-11-05T05:11:30.633Z,955.94
2016-11-05T05:12:30.595Z,955.97
2016-11-05T05:13:30.557Z,955.94
2016-11-05T05:14:30.521Z,955.93
2016-11-05T05:15:30.484Z,955.92
2016-11-05T05:16:30.445Z,955.91
2016-11-05T05:17:30.409Z,955.9
2016-11-05T05:18:30.373Z,955.87
2016-11-05T05:19:30.335Z,955.88
2016-11-05T05:20:30.296Z,955.84
2016-11-05T05:21:30.259Z,955.8
2016-11-05T05:22:30.223Z,955.79
2016-11-05T05:23:30.185Z,955.8
2016-11-05T05:24:30.147Z,955.82
2016-11-05T05:25:30.111Z,955.75
2016-11-05T05:26:30.072Z,955.76
2016-11-05T05:27:30.036Z,955.71
2016-11-05T05:28:29.997Z,955.74
2016-11-05T05:29:29.960Z,955.65
2016-11-05T05:30:29.923Z,955.71
2016-11-05T05:31:29.885Z,955.72
2016-11-05T05:32:29.849Z,955.7
2016-11-05T05:33:29.810Z,955.66
2016-11-05T05:34:29.774Z,955.65
2016-11-05T05:35:29.738Z,955.66
2016-11-05T05:36:29.701Z,955.65
2016-11-05T05:37:29.662Z,955.65
2016-11-05T05:38:29.624Z,955.64
2016-11-05T05:39:29.588Z,955.59
2016-11-05T05:40:29.550Z,955.58
2016-11-05T05:41:29.512Z,955.56
2016-11-05T05:42:29.476Z,955.52
2016-11-05T05:43:29.439Z,955.52
2016-11-05T05:44:29.400Z,955.53
2016-11-05T05:45:29.364Z,955.5
2016-11-05T05:46:29.327Z,955.5
2016-11-05T05:47:29.289Z,955.49
2016-11-05T05:48:29.252Z,955.43
2016-11-05T05:49:29.213Z,955.43
2016-11-05T05:50:29.176Z,955.43
2016-11-05T05:51:29.142Z,955.45
2016-11-05T05:52:29.105Z,955.43
2016-11-05T05:53:29.063Z,955.43
2016-11-05T05:54:29.027Z,955.39
2016-11-05T05:55:28.991Z,955.46
2016-11-05T05:56:28.955Z,955.49
2016-11-05T05:57:28.915Z,955.47
2016-11-05T05:58:28.879Z,955.47
2016-11-05T05:59:28.842Z,955.5
2016-11-05T06:00:28.804Z,955.5
2016-11-05T06:01:28.765Z,955.47
2016-11-05T06:02:28.729Z,955.5
2016-11-05T06:03:28.694Z,955.46
2016-11-05T06:04:28.654Z,955.48
2016-11-05T06:05:28.616Z,955.43
2016-11-05T06:06:28.579Z,955.39
2016-11-05T06:07:28.543Z,955.41
2016-11-05T06:08:28.505Z,955.39
2016-11-05T06:09:28.466Z,955.39
2016-11-05T06:10:28.431Z,955.37
2016-11-05T06:11:28.396Z,955.37
2016-11-05T06:12:28.356Z,955.38
2016-11-05T06:13:28.319Z,955.36
2016-11-05T06:14:28.288Z,955.42
2016-11-05T06:15:28.243Z,955.42
2016-11-05T06:16:28.207Z,955.4
2016-11-05T06:17:28.170Z,955.36
2016-11-05T06:18:28.133Z,955.41
2016-11-05T06:19:28.095Z,955.36
2016-11-05T06:20:28.058Z,955.37
2016-11-05T06:21:28.021Z,955.4
2016-11-05T06:22:27.981Z,955.39
2016-11-05T06:23:27.946Z,955.4
2016-11-05T06:24:27.910Z,955.42
2016-11-05T06:25:27.872Z,955.4
2016-11-05T06:26:27.834Z,955.4
2016-11-05T06:27:27.797Z,955.35
2016-11-05T06:28:27.759Z,955.37
2016-11-05T06:29:27.721Z,955.32
2016-11-05T06:30:27.685Z,955.34
2016-11-05T06:31:27.647Z,955.34
2016-11-05T06:32:27.610Z,955.34
2016-11-05T06:33:27.575Z,955.28
2016-11-05T06:34:27.535Z,955.28
2016-11-05T06:35:27.499Z,955.28
2016-11-05T06:36:27.461Z,955.2
2016-11-05T06:37:27.421Z,955.18
2016-11-05T06:38:27.385Z,955.22
2016-11-05T06:39:27.349Z,955.23
2016-11-05T06:40:27.310Z,955.25
2016-11-05T06:41:27.274Z,955.27
2016-11-05T06:42:27.235Z,955.25
2016-11-05T06:43:27.198Z,955.25
2016-11-05T06:44:27.162Z,955.24
2016-11-05T06:45:27.123Z,955.23
2016-11-05T06:46:27.086Z,955.23
2016-11-05T06:47:27.048Z,955.15
2016-11-05T06:48:27.010Z,955.15
2016-11-05T06:49:26.974Z,955.16
2016-11-05T06:50:26.938Z,955.09
2016-11-05T06:51:26.903Z,955.12
2016-11-05T06:52:26.860Z,955.09
2016-11-05T06:53:26.823Z,955.1
2016-11-05T06:54:26.787Z,955.05
2016-11-05T06:55:26.748Z,955.04
2016-11-05T06:56:26.709Z,955.05
2016-11-05T06:57:26.672Z,955.06
2016-11-05T06:58:26.635Z,955.01
2016-11-05T06:59:26.598Z,954.95
2016-11-05T07:00:26.558Z,954.95
2016-11-05T07:01:26.523Z,954.87
2016-11-05T07:02:26.484Z,954.81
2016-11-05T07:03:26.446Z,954.94
2016-11-05T07:04:26.409Z,954.93
2016-11-05T07:05:26.371Z,954.93
2016-11-05T07:06:26.334Z,954.91
2016-11-05T07:07:26.295Z,954.83
2016-11-05T07:08:26.258Z,954.84
2016-11-05T07:09:26.222Z,954.8
2016-11-05T07:10:26.184Z,954.81
2016-11-05T07:11:26.146Z,954.79
2016-11-05T07:12:26.108Z,954.74
2016-11-05T07:13:26.070Z,954.7
2016-11-05T07:14:26.032Z,954.67
2016-11-05T07:15:25.996Z,954.64
2016-11-05T07:16:25.959Z,954.65
2016-11-05T07:17:25.920Z,954.62
2016-11-05T07:18:25.882Z,954.59
2016-11-05T07:19:25.846Z,954.54
2016-11-05T07:20:25.820Z,954.46
2016-11-05T07:21:25.769Z,954.47
2016-11-05T07:22:25.733Z,954.43
2016-11-05T07:23:25.695Z,954.48
2016-11-05T07:24:25.658Z,954.52
2016-11-05T07:25:25.620Z,954.54
2016-11-05T07:26:25.591Z,954.48
2016-11-05T07:27:25.546Z,954.39
2016-11-05T07:28:25.507Z,954.39
2016-11-05T07:29:25.471Z,954.37
2016-11-05T07:30:25.436Z,954.35
2016-11-05T07:31:25.396Z,954.38
2016-11-05T07:32:25.359Z,954.35
2016-11-05T07:33:25.322Z,954.37
2016-11-05T07:34:25.285Z,954.39
2016-11-05T07:35:25.247Z,954.38
2016-11-05T07:36:25.210Z,954.42
2016-11-05T07:37:25.174Z,954.35
2016-11-05T07:38:25.136Z,954.37
2016-11-05T07:39:25.098Z,954.37
2016-11-05T07:40:25.063Z,954.36
2016-11-05T07:41:25.024Z,954.37
2016-11-05T07:42:24.988Z,954.36
2016-11-05T07:43:24.952Z,954.33
2016-11-05T07:44:24.915Z,954.29
2016-11-05T07:45:24.877Z,954.27
2016-11-05T07:46:24.839Z,954.2
2016-11-05T07:47:24.804Z,954.16
2016-11-05T07:48:24.766Z,954.15
2016-11-05T07:49:24.731Z,954.08
2016-11-05T07:50:24.692Z,954.02
2016-11-05T07:51:24.656Z,953.89
2016-11-05T07:52:24.618Z,953.88
2016-11-05T07:53:24.580Z,953.83
2016-11-05T07:54:24.543Z,953.83
2016-11-05T07:55:24.506Z,953.79
2016-11-05T07:56:24.469Z,953.79
2016-11-05T07:57:24.433Z,953.77
2016-11-05T07:58:24.396Z,953.75
2016-11-05T07:59:24.361Z,953.75
2016-11-05T08:00:24.323Z,953.75
2016-11-05T08:01:24.285Z,953.7
2016-11-05T08:02:24.250Z,953.68
2016-11-05T08:03:24.212Z,953.64
2016-11-05T08:04:24.174Z,953.52
2016-11-05T08:05:24.141Z,953.51
2016-11-05T08:06:24.101Z,953.5
2016-11-05T08:07:24.064Z,953.48
2016-11-05T08:08:24.027Z,953.47
2016-11-05T08:09:23.991Z,953.46
2016-11-05T08:10:23.953Z,953.47
2016-11-05T08:11:23.917Z,953.44
2016-11-05T08:12:23.880Z,953.48
2016-11-05T08:13:23.845Z,953.47
2016-11-05T08:14:23.806Z,953.47
2016-11-05T08:15:23.771Z,953.49
2016-11-05T08:16:23.732Z,953.45
2016-11-05T08:17:23.698Z,953.45
2016-11-05T08:18:23.662Z,953.45
2016-11-05T08:19:23.625Z,953.41
2016-11-05T08:20:23.589Z,953.38
2016-11-05T08:21:23.553Z,953.34
2016-11-05T08:22:23.517Z,953.32
2016-11-05T08:23:23.480Z,953.31
2016-11-05T08:24:23.445Z,953.3
2016-11-05T08:25:23.410Z,953.26
2016-11-05T08:26:23.371Z,953.25
2016-11-05T08:27:23.337Z,953.23
2016-11-05T08:28:23.303Z,953.16
2016-11-05T08:29:23.266Z,953.15
2016-11-05T08:30:23.230Z,953.12
2016-11-05T08:31:23.194Z,953.11
2016-11-05T08:32:23.159Z,953.09
2016-11-05T08:33:23.124Z,953.07
2016-11-05T08:34:23.088Z,953.09
2016-11-05T08:35:23.053Z,953.07
2016-11-05T08:36:23.018Z,953.04
2016-11-05T08:37:22.981Z,953.06
2016-11-05T08:38:22.946Z,952.99
2016-11-05T08:39:22.911Z,952.98
2016-11-05T08:40:22.875Z,952.92
2016-11-05T08:41:22.841Z,952.93
2016-11-05T08:42:22.804Z,952.91
2016-11-05T08:43:22.769Z,952.89
2016-11-05T08:44:22.734Z,952.89
2016-11-05T08:45:22.698Z,952.86
2016-11-05T08:46:22.664Z,952.87
2016-11-05T08:47:22.628Z,952.86
2016-11-05T08:48:22.591Z,952.85
2016-11-05T08:49:22.559Z,952.84
2016-11-05T08:50:22.522Z,952.84
2016-11-05T08:51:22.487Z,952.8
2016-11-05T08:52:22.453Z,952.81
2016-11-05T08:53:22.417Z,952.81
2016-11-05T08:54:22.380Z,952.8
2016-11-05T08:55:22.345Z,952.8
2016-11-05T08:56:22.311Z,952.73
2016-11-05T08:57:22.275Z,952.73
2016-11-05T08:58:22.241Z,952.66
2016-11-05T08:59:22.205Z,952.7
2016-11-05T09:00:22.170Z,952.66
2016-11-05T09:01:22.134Z,952.55
2016-11-05T09:02:22.099Z,952.54
2016-11-05T09:03:22.063Z,952.5
2016-11-05T09:04:22.027Z,952.51
2016-11-05T09:05:21.992Z,952.46
2016-11-05T09:06:21.957Z,952.46
2016-11-05T09:07:21.922Z,952.46
2016-11-05T09:08:21.885Z,952.42
2016-11-05T09:09:21.851Z,952.41
2016-11-05T09:10:21.817Z,952.37
2016-11-05T09:11:21.780Z,952.41
2016-11-05T09:12:21.744Z,952.39
2016-11-05T09:13:21.710Z,952.38
2016-11-05T09:14:21.674Z,952.37
2016-11-05T09:15:21.638Z,952.34
2016-11-05T09:16:21.603Z,952.28
2016-11-05T09:17:21.568Z,952.26
2016-11-05T09:18:21.535Z,952.28
2016-11-05T09:19:21.498Z,952.25
2016-11-05T09:20:21.463Z,952.21
2016-11-05T09:21:21.428Z,952.19
2016-11-05T09:22:21.392Z,952.15
2016-11-05T09:23:21.357Z,952.16
2016-11-05T09:24:21.324Z,952.15
2016-11-05T09:25:21.302Z,952.13
2016-11-05T09:26:21.251Z,952.14
2016-11-05T09:27:21.218Z,952.21
2016-11-05T09:28:21.180Z,952.18
2016-11-05T09:29:21.145Z,952.16
2016-11-05T09:30:21.110Z,952.11
2016-11-05T09:31:21.075Z,952.17
2016-11-05T09:32:21.039Z,952.23
2016-11-05T09:33:21.003Z,952.19
2016-11-05T09:34:20.974Z,952.16
2016-11-05T09:35:20.934Z,952.15
2016-11-05T09:36:20.897Z,952.21
2016-11-05T09:37:20.862Z,952.25
2016-11-05T09:38:20.827Z,952.31
2016-11-05T09:39:20.792Z,952.32
2016-11-05T09:40:20.756Z,952.27
2016-11-05T09:41:20.720Z,952.16
2016-11-05T09:42:20.686Z,952.06
2016-11-05T09:43:20.648Z,952.06
2016-11-05T09:44:20.615Z,952.04
2016-11-05T09:45:20.578Z,951.98
2016-11-05T09:46:20.544Z,951.98
2016-11-05T09:47:20.507Z,951.94
2016-11-05T09:48:20.471Z,951.96
2016-11-05T09:49:20.435Z,951.95
2016-11-05T09:50:20.399Z,951.93
2016-11-05T09:51:20.364Z,951.89
2016-11-05T09:52:20.328Z,951.9
2016-11-05T09:53:20.293Z,951.86
2016-11-05T09:54:20.256Z,951.83
2016-11-05T09:55:20.222Z,951.87
2016-11-05T09:56:20.186Z,951.83
2016-11-05T09:57:20.151Z,951.81
2016-11-05T09:58:20.114Z,951.76
2016-11-05T09:59:20.081Z,951.73
2016-11-05T10:00:20.044Z,951.75
2016-11-05T10:01:20.008Z,951.7
2016-11-05T10:02:19.973Z,951.73
2016-11-05T10:03:19.936Z,951.69
2016-11-05T10:04:19.901Z,951.7
2016-11-05T10:05:19.864Z,951.64
2016-11-05T10:06:19.828Z,951.6
2016-11-05T10:07:19.794Z,951.57
2016-11-05T10:08:19.765Z,951.52
2016-11-05T10:09:19.722Z,951.53
2016-11-05T10:10:19.688Z,951.59
2016-11-05T10:11:19.652Z,951.61
2016-11-05T10:12:19.614Z,951.67
2016-11-05T10:13:19.580Z,951.73
2016-11-05T10:14:19.545Z,951.76
2016-11-05T10:15:19.510Z,951.74
2016-11-05T10:16:19.475Z,951.74
2016-11-05T10:17:19.441Z,951.7
2016-11-05T10:18:19.403Z,951.7
2016-11-05T10:19:19.367Z,951.71
2016-11-05T10:20:19.332Z,951.7
2016-11-05T10:21:19.297Z,951.71
2016-11-05T10:22:19.261Z,951.74
2016-11-05T10:23:19.225Z,951.78
2016-11-05T10:24:19.190Z,951.79
2016-11-05T10:25:19.155Z,951.77
2016-11-05T10:26:19.121Z,951.76
2016-11-05T10:27:19.084Z,951.77
2016-11-05T10:28:19.049Z,951.77
2016-11-05T10:29:19.014Z,951.71
2016-11-05T10:30:18.979Z,951.7
2016-11-05T10:31:18.944Z,951.68
2016-11-05T10:32:18.909Z,951.71
2016-11-05T10:33:18.873Z,951.72
2016-11-05T10:34:18.836Z,951.73
2016-11-05T10:35:18.807Z,951.77
2016-11-05T10:36:18.766Z,951.82
2016-11-05T10:37:18.731Z,951.85
2016-11-05T10:38:18.694Z,951.88
2016-11-05T10:39:18.661Z,951.84
2016-11-05T10:40:18.624Z,951.82
2016-11-05T10:41:18.590Z,951.79
2016-11-05T10:42:18.554Z,951.79
2016-11-05T10:43:18.519Z,951.78
2016-11-05T10:44:18.483Z,951.71
2016-11-05T10:45:18.448Z,951.65
2016-11-05T10:46:18.413Z,951.6
2016-11-05T10:47:18.379Z,951.54
2016-11-05T10:48:18.343Z,951.53
2016-11-05T10:49:18.306Z,951.62
2016-11-05T10:50:18.271Z,951.58
2016-11-05T10:51:18.236Z,951.55
2016-11-05T10:52:18.201Z,951.47
2016-11-05T10:53:18.167Z,951.52
2016-11-05T10:54:18.133Z,951.59
2016-11-05T10:55:18.098Z,951.56
2016-11-05T10:56:18.061Z,951.56
2016-11-05T10:57:18.027Z,951.54
2016-11-05T10:58:17.992Z,951.5
2016-11-05T10:59:17.957Z,951.47
2016-11-05T11:00:17.922Z,951.45
2016-11-05T11:01:17.890Z,951.38
2016-11-05T11:02:17.852Z,951.42
2016-11-05T11:03:17.816Z,951.31
2016-11-05T11:04:17.782Z,951.33
2016-11-05T11:05:17.748Z,951.25
2016-11-05T11:06:17.714Z,951.24
2016-11-05T11:07:17.677Z,951.23
2016-11-05T11:08:17.642Z,951.32
2016-11-05T11:09:17.607Z,951.36
2016-11-05T11:10:17.572Z,951.41
2016-11-05T11:11:17.537Z,951.44
2016-11-05T11:12:17.502Z,951.35
2016-11-05T11:13:17.466Z,951.4
2016-11-05T11:14:17.431Z,951.43
2016-11-05T11:15:17.396Z,951.38
2016-11-05T11:16:17.362Z,951.49
2016-11-05T11:17:17.328Z,951.63
2016-11-05T11:18:17.290Z,951.73
2016-11-05T11:19:17.255Z,951.7
2016-11-05T11:20:17.220Z,951.61
2016-11-05T11:21:17.186Z,951.52
2016-11-05T11:22:17.152Z,951.49
2016-11-05T11:23:17.116Z,951.5
2016-11-05T11:24:17.080Z,951.4
2016-11-05T11:25:17.045Z,951.35
2016-11-05T11:26:17.008Z,951.27
2016-11-05T11:27:16.975Z,951.28
2016-11-05T11:28:16.940Z,951.34
2016-11-05T11:29:16.905Z,951.39
2016-11-05T11:30:16.868Z,951.45
2016-11-05T11:31:16.834Z,951.52
2016-11-05T11:32:16.799Z,951.48
2016-11-05T11:33:16.764Z,951.45
2016-11-05T11:34:16.728Z,951.55
2016-11-05T11:35:16.701Z,951.59
2016-11-05T11:36:16.657Z,951.53
2016-11-05T11:37:16.623Z,951.58
2016-11-05T11:38:16.588Z,951.59
2016-11-05T11:39:16.552Z,951.56
2016-11-05T11:40:16.516Z,951.44
2016-11-05T11:41:16.489Z,951.42
2016-11-05T11:42:16.447Z,951.44
2016-11-05T11:43:16.411Z,951.43
2016-11-05T11:44:16.377Z,951.37
2016-11-05T11:45:16.340Z,951.27
2016-11-05T11:46:16.306Z,951.23
2016-11-05T11:47:16.268Z,951.29
2016-11-05T11:48:16.233Z,951.2
2016-11-05T11:49:16.199Z,951.23
2016-11-05T11:50:16.165Z,951.37
2016-11-05T11:51:16.129Z,951.35
2016-11-05T11:52:16.092Z,951.21
2016-11-05T11:53:16.058Z,951.17
2016-11-05T11:54:16.022Z,951.14
2016-11-05T11:55:15.995Z,951.1
2016-11-05T11:56:15.951Z,951.23
2016-11-05T11:57:15.917Z,951.35
2016-11-05T11:58:15.881Z,951.3
2016-11-05T11:59:15.846Z,951.25
2016-11-05T12:00:15.811Z,951.29
2016-11-05T12:01:15.775Z,951.28
2016-11-05T12:02:15.739Z,951.28
2016-11-05T12:03:15.703Z,951.29
2016-11-05T12:04:15.669Z,951.34
2016-11-05T12:05:15.633Z,951.28
2016-11-05T12:06:15.597Z,951.17
2016-11-05T12:07:15.563Z,951.13
2016-11-05T12:08:15.528Z,951.11
2016-11-05T12:09:15.490Z,951.03
2016-11-05T12:10:15.457Z,951.04
2016-11-05T12:11:15.421Z,951.12
2016-11-05T12:12:15.386Z,950.97
2016-11-05T12:13:15.350Z,950.94
2016-11-05T12:14:15.314Z,950.97
2016-11-05T12:15:15.280Z,950.96
2016-11-05T12:16:15.244Z,950.94
2016-11-05T12:17:15.209Z,950.92
2016-11-05T12:18:15.174Z,950.92
2016-11-05T12:19:15.137Z,950.95
2016-11-05T12:20:15.100Z,950.93
2016-11-05T12:21:15.066Z,950.88
2016-11-05T12:22:15.031Z,950.85
2016-11-05T12:23:14.995Z,950.78
2016-11-05T12:24:14.959Z,950.84
2016-11-05T12:25:14.923Z,950.73
2016-11-05T12:26:14.889Z,950.69
2016-11-05T12:27:14.852Z,950.69
2016-11-05T12:28:14.819Z,950.69
2016-11-05T12:29:14.783Z,950.63
2016-11-05T12:30:14.749Z,950.63
2016-11-05T12:31:14.712Z,950.63